Time;durP1;ratioP1;P1;durP2;ratioP2;P2;SDS_P1;SDS_P2;PMS_P1;PMS_P2;Temp;Humidity;BMP_temperature;BMP_pressure;BME280_temperature;BME280_humidity;BME280_pressure;Samples;Min_cycle;Max_cycle;Signal;HPM_P1;HPM_P2
2022/01/19 00:00:34;;;;;;;7.60;4.78;;;;;;;14.81;66.01;102954.09;20999236;28;20041;-56
2022/01/19 00:10:36;;;;;;;9.32;4.60;;;;;;;14.74;66.58;102922.16;20979793;28;20474;-56
2022/01/19 00:20:38;;;;;;;7.95;5.03;;;;;;;14.66;66.07;102905.50;20978447;28;20045;-56
2022/01/19 00:30:40;;;;;;;8.02;5.00;;;;;;;14.73;66.32;102914.19;20996517;28;20441;-56
2022/01/19 00:40:43;;;;;;;8.35;5.18;;;;;;;14.80;66.48;102837.91;20993613;28;20407;-57
2022/01/19 00:50:47;;;;;;;11.15;6.47;;;;;;;14.62;65.36;102757.34;20995684;28;20509;-56
2022/01/19 01:00:49;;;;;;;9.50;6.10;;;;;;;14.29;65.37;102725.72;20993644;28;20051;-57
2022/01/19 01:10:51;;;;;;;9.20;5.25;;;;;;;14.57;65.68;102753.97;20992597;28;20066;-54
2022/01/19 01:20:55;;;;;;;7.57;5.22;;;;;;;14.82;65.46;102752.03;20992166;28;20044;-56
2022/01/19 01:30:57;;;;;;;8.35;4.93;;;;;;;14.87;65.24;102748.19;20956839;28;20044;-56
2022/01/19 01:40:59;;;;;;;9.38;5.13;;;;;;;14.39;64.60;102599.38;20990384;28;20106;-56
2022/01/19 02:01:27;;;;;;;8.03;5.53;;;;;;;14.84;64.43;102626.81;20971264;28;20051;-53
2022/01/19 02:22:01;;;;;;;11.15;6.38;;;;;;;14.92;64.10;102633.53;20970123;28;20066;-55
2022/01/19 02:42:27;;;;;;;8.73;5.43;;;;;;;14.81;63.81;102563.47;20986564;28;20071;-56
2022/01/19 02:52:29;;;;;;;9.98;5.78;;;;;;;14.96;63.47;102556.47;20968594;28;20044;-56
2022/01/19 03:12:52;;;;;;;8.65;6.40;;;;;;;14.84;63.63;102484.69;20967900;28;20080;-56
2022/01/19 03:23:03;;;;;;;9.07;5.50;;;;;;;14.49;63.59;102413.09;20967373;28;20037;-55
2022/01/19 03:33:06;;;;;;;9.50;5.88;;;;;;;14.47;63.24;102401.59;20967142;28;20759;-55
2022/01/19 03:43:09;;;;;;;8.43;5.22;;;;;;;14.59;62.93;102389.38;20966303;28;20057;-56
2022/01/19 03:53:27;;;;;;;8.48;5.47;;;;;;;14.96;62.88;102421.50;20969440;28;20056;-56
2022/01/19 04:24:01;;;;;;;8.68;5.65;;;;;;;14.93;63.23;102406.44;20979320;28;20642;-56
2022/01/19 04:34:05;;;;;;;7.35;4.90;;;;;;;14.90;62.75;102393.22;20994831;28;20136;-54
2022/01/19 05:04:51;;;;;;;8.50;5.15;;;;;;;15.20;61.98;102366.56;20975696;28;20052;-54
2022/01/19 05:15:06;;;;;;;9.27;6.57;;;;;;;14.99;59.92;102268.47;20993289;28;20061;-54
2022/01/19 05:25:12;;;;;;;9.60;7.18;;;;;;;15.55;59.61;102327.16;20974605;28;20044;-55
2022/01/19 05:35:37;;;;;;;9.52;6.38;;;;;;;15.59;59.42;102317.97;20977262;28;20136;-54
2022/01/19 05:46:14;;;;;;;8.95;6.53;;;;;;;15.70;59.68;102337.03;20973589;28;20041;-51
2022/01/19 05:56:16;;;;;;;8.88;5.15;;;;;;;15.52;59.62;102231.56;20971804;28;20056;-54
2022/01/19 06:06:31;;;;;;;10.23;5.28;;;;;;;16.26;58.90;102280.13;20971243;28;20056;-53
2022/01/19 06:16:45;;;;;;;9.07;5.60;;;;;;;15.88;57.75;102200.88;20969855;28;20565;-55
2022/01/19 06:26:48;;;;;;;12.38;7.03;;;;;;;16.18;57.46;102248.34;20970175;28;20044;-55
2022/01/19 06:36:52;;;;;;;9.65;6.47;;;;;;;15.72;57.05;102152.53;20987320;28;20117;-56
2022/01/19 06:47:13;;;;;;;8.65;6.60;;;;;;;15.55;57.04;102102.53;20969136;28;20072;-54
2022/01/19 06:57:15;;;;;;;11.98;7.60;;;;;;;16.18;56.39;102209.84;20952201;28;20053;-54
2022/01/19 07:07:37;;;;;;;11.07;7.03;;;;;;;16.18;56.04;102196.41;20889106;28;20080;-57
2022/01/19 07:17:39;;;;;;;9.07;6.13;;;;;;;14.85;56.96;101974.31;20966670;28;20059;-55
2022/01/19 07:27:42;;;;;;;10.10;7.28;;;;;;;16.23;55.32;102145.94;20971690;28;20139;-57
2022/01/19 07:37:44;;;;;;;12.10;8.15;;;;;;;16.24;54.49;102135.13;20966153;28;20131;-64
2022/01/19 07:47:48;;;;;;;10.73;7.32;;;;;;;16.25;54.83;102144.03;20981928;28;20045;-63
2022/01/19 07:58:19;;;;;;;8.98;6.20;;;;;;;15.86;55.31;102064.91;20981369;28;20057;-64
2022/01/19 08:08:28;;;;;;;10.02;6.72;;;;;;;16.09;54.69;102104.69;20998479;28;20098;-64
2022/01/19 08:18:30;;;;;;;10.00;5.75;;;;;;;16.07;55.19;102074.38;20973446;28;20072;-63
2022/01/19 08:28:32;;;;;;;10.70;7.05;;;;;;;15.91;54.20;102033.31;20979095;28;20048;-63
2022/01/19 08:38:35;;;;;;;9.40;6.40;;;;;;;15.87;54.59;102053.22;20976569;28;20139;-64
2022/01/19 08:48:44;;;;;;;10.43;6.38;;;;;;;15.71;54.64;102016.56;20976793;28;20068;-63
2022/01/19 08:59:03;;;;;;;10.05;6.88;;;;;;;15.20;54.36;101910.53;20959638;28;20135;-63
2022/01/19 09:09:05;;;;;;;10.40;6.85;;;;;;;15.73;54.71;102003.91;20993405;28;20044;-63
2022/01/19 09:19:07;;;;;;;7.57;5.68;;;;;;;15.81;56.07;101985.50;20975225;28;20064;-62
2022/01/19 09:29:09;;;;;;;8.20;6.13;;;;;;;15.60;54.87;101933.16;20991955;28;20063;-63
2022/01/19 09:39:14;;;;;;;6.57;5.35;;;;;;;15.78;55.92;101958.00;20990935;28;20071;-63
2022/01/19 09:49:17;;;;;;;8.15;5.28;;;;;;;15.30;55.94;101867.03;20989891;28;20131;-63
2022/01/19 09:59:20;;;;;;;7.72;5.65;;;;;;;15.33;55.49;101832.81;20989373;28;20084;-63
2022/01/19 10:09:29;;;;;;;7.07;5.80;;;;;;;15.81;55.53;101877.25;20971063;28;20082;-64
2022/01/19 10:19:38;;;;;;;7.90;6.65;;;;;;;15.84;55.90;101870.81;20988571;28;20749;-63
2022/01/19 10:29:40;;;;;;;8.93;6.68;;;;;;;15.80;56.09;101881.75;20988197;28;20052;-60
2022/01/19 10:39:49;;;;;;;14.60;5.88;;;;;;;15.80;56.66;101867.47;20970602;28;20079;-61
2022/01/19 10:49:56;;;;;;;9.05;5.18;;;;;;;15.21;56.93;101762.03;20987135;28;20098;-64
2022/01/19 11:00:14;;;;;;;7.30;4.32;;;;;;;15.92;57.43;101826.41;20986724;28;20054;-64
2022/01/19 11:10:21;;;;;;;9.15;5.43;;;;;;;15.54;56.33;101714.31;21003007;28;20065;-64
2022/01/19 11:20:24;;;;;;;10.55;6.65;;;;;;;15.96;56.36;101773.38;21001725;28;20109;-65
2022/01/19 11:30:29;;;;;;;10.75;6.07;;;;;;;15.85;56.52;101757.06;20984169;28;20402;-64
2022/01/19 11:40:35;;;;;;;12.55;7.05;;;;;;;15.80;57.94;101712.59;20965373;28;20050;-72
2022/01/19 11:50:37;;;;;;;12.70;9.23;;;;;;;15.43;58.83;101631.84;21000094;28;20053;-64
2022/01/19 12:00:41;;;;;;;12.68;8.10;;;;;;;15.74;58.82;101656.63;20998891;28;20049;-65
2022/01/19 12:10:46;;;;;;;14.25;7.85;;;;;;;15.90;59.27;101682.47;20998087;28;20052;-68
2022/01/19 12:20:55;;;;;;;10.40;7.50;;;;;;;15.90;58.71;101642.19;20977835;28;20052;-64
2022/01/19 12:31:36;;;;;;;14.00;8.80;;;;;;;15.91;59.09;101623.28;20996610;28;20464;-64
2022/01/19 12:41:58;;;;;;;14.25;9.82;;;;;;;15.92;60.23;101611.59;20995717;28;20094;-63
2022/01/19 12:52:00;;;;;;;24.48;16.85;;;;;;;15.64;55.31;101580.38;20995168;28;20107;-64
2022/01/19 13:02:03;;;;;;;20.13;12.50;;;;;;;15.64;59.08;101562.44;20975395;28;20057;-63
2022/01/19 13:12:14;;;;;;;25.40;13.20;;;;;;;15.56;59.76;101497.69;20994456;28;20048;-66
2022/01/19 13:22:16;;;;;;;20.02;13.05;;;;;;;15.25;64.35;101415.78;20992362;28;20048;-59
2022/01/19 13:32:21;;;;;;;23.48;12.18;;;;;;;15.75;64.22;101481.16;20991758;28;20053;-65
2022/01/19 13:42:39;;;;;;;18.50;11.13;;;;;;;15.34;63.61;101396.38;20993573;28;20486;-65
2022/01/19 13:52:41;;;;;;;15.70;11.35;;;;;;;15.68;63.73;101468.28;20990413;28;20064;-66
2022/01/19 14:02:57;;;;;;;16.27;12.18;;;;;;;15.51;62.96;101419.34;20971596;28;20125;-65
2022/01/19 14:13:26;;;;;;;18.83;11.32;;;;;;;15.62;62.12;101427.47;20972895;28;20053;-65
2022/01/19 14:23:28;;;;;;;13.27;9.40;;;;;;;15.12;61.88;101346.03;20971483;28;20048;-65
2022/01/19 14:33:30;;;;;;;14.82;10.07;;;;;;;15.22;62.17;101377.50;20988173;28;20114;-66
2022/01/19 14:43:47;;;;;;;10.10;8.43;;;;;;;15.55;62.39;101425.34;20986719;28;20489;-66
2022/01/19 14:54:04;;;;;;;12.80;9.05;;;;;;;15.52;62.04;101388.84;20987046;28;20083;-66
2022/01/19 15:04:07;;;;;;;14.13;9.85;;;;;;;15.54;61.50;101383.38;20986380;28;20045;-66
2022/01/19 15:14:10;;;;;;;11.13;8.25;;;;;;;15.56;61.80;101373.41;20986339;28;20098;-66
2022/01/19 15:24:11;;;;;;;11.40;7.47;;;;;;;15.45;61.67;101375.00;20986580;28;20383;-65
2022/01/19 15:34:19;;;;;;;11.55;7.43;;;;;;;15.56;61.34;101395.72;20985374;28;20040;-65
2022/01/19 15:44:21;;;;;;;8.95;6.38;;;;;;;15.23;60.41;101355.06;20984699;28;20517;-65
2022/01/19 15:54:23;;;;;;;10.02;7.47;;;;;;;15.02;60.74;101313.63;20996887;28;20460;-65
2022/01/19 16:04:25;;;;;;;8.38;6.63;;;;;;;15.45;61.05;101383.03;20998846;28;20052;-65
2022/01/19 16:14:27;;;;;;;9.25;6.03;;;;;;;15.40;60.38;101379.00;20980780;28;20135;-66
2022/01/19 16:34:49;;;;;;;8.15;5.43;;;;;;;14.92;60.69;101305.41;20997245;28;20060;-65
2022/01/19 16:44:53;;;;;;;6.43;5.30;;;;;;;15.33;60.77;101394.66;20985531;28;20146;-65
2022/01/19 16:54:55;;;;;;;8.60;5.40;;;;;;;15.39;60.87;101404.94;20995223;28;20409;-65
2022/01/19 17:04:57;;;;;;;6.60;4.50;;;;;;;15.40;60.88;101395.94;20991851;28;20046;-65
2022/01/19 17:15:13;;;;;;;6.78;4.38;;;;;;;15.34;60.83;101377.59;20993033;28;20135;-65
2022/01/19 17:25:15;;;;;;;7.57;4.30;;;;;;;14.60;61.19;101289.69;20991001;28;20496;-66
2022/01/19 17:35:16;;;;;;;5.82;3.58;;;;;;;14.55;61.38;101276.59;20991744;28;20044;-65
2022/01/19 17:45:29;;;;;;;4.43;3.30;;;;;;;15.43;61.49;101425.22;20919622;28;20091;-65
2022/01/19 17:55:31;;;;;;;4.30;3.13;;;;;;;15.22;61.54;101409.69;20908892;28;20045;-66
2022/01/19 18:05:33;;;;;;;5.22;2.92;;;;;;;15.43;61.80;101438.66;20908154;28;20049;-65
2022/01/19 18:15:35;;;;;;;3.80;2.90;;;;;;;15.03;61.81;101390.47;20875729;28;20056;-66
2022/01/19 18:25:37;;;;;;;4.55;3.33;;;;;;;15.11;61.84;101414.06;20971096;28;20080;-65
2022/01/19 18:35:39;;;;;;;3.22;2.53;;;;;;;15.42;62.28;101474.50;20988341;28;20052;-65
2022/01/19 18:45:41;;;;;;;5.25;2.45;;;;;;;15.44;61.48;101461.81;20987695;28;20066;-65
2022/01/19 18:55:44;;;;;;;5.30;2.38;;;;;;;15.45;61.62;101470.75;20987334;28;20060;-65
2022/01/19 19:05:47;;;;;;;5.30;2.67;;;;;;;15.01;61.72;101397.72;20969636;28;20414;-65
2022/01/19 19:15:50;;;;;;;4.65;2.33;;;;;;;15.01;61.47;101437.94;20968665;28;20410;-65
2022/01/19 19:25:52;;;;;;;5.55;2.58;;;;;;;14.92;61.78;101464.44;20993412;28;20044;-65
2022/01/19 19:35:54;;;;;;;4.38;2.28;;;;;;;15.20;62.40;101561.81;21001874;28;20044;-65
2022/01/19 19:45:56;;;;;;;5.47;2.00;;;;;;;14.78;63.12;101518.09;21000743;28;20095;-65
2022/01/19 19:55:58;;;;;;;6.72;2.58;;;;;;;14.60;62.66;101518.31;21000132;28;20049;-66
2022/01/19 20:06:00;;;;;;;6.10;2.65;;;;;;;15.02;63.41;101605.91;20981644;28;20044;-66
2022/01/19 20:16:03;;;;;;;4.03;2.30;;;;;;;14.96;63.74;101634.00;20998616;28;20167;-66
2022/01/19 20:26:09;;;;;;;7.20;3.05;;;;;;;14.69;63.71;101586.53;20997924;28;20113;-66
2022/01/19 20:36:11;;;;;;;7.00;2.13;;;;;;;14.82;63.71;101642.94;20978515;28;20514;-66
2022/01/19 20:46:13;;;;;;;4.57;2.28;;;;;;;14.84;64.20;101654.41;20978496;28;20048;-66
2022/01/19 20:56:15;;;;;;;5.47;2.67;;;;;;;14.35;64.44;101589.53;20995639;28;20506;-66
2022/01/19 21:06:17;;;;;;;6.63;2.47;;;;;;;14.72;64.28;101665.91;20994634;28;20073;-66
2022/01/19 21:16:18;;;;;;;4.63;1.83;;;;;;;14.66;64.46;101664.44;20994031;28;20143;-66
2022/01/19 21:26:21;;;;;;;4.45;1.60;;;;;;;14.59;64.69;101664.00;20992816;28;20048;-66
2022/01/19 21:36:24;;;;;;;4.82;1.90;;;;;;;13.96;64.34;101574.13;20992296;28;20059;-65
2022/01/19 21:46:25;;;;;;;4.88;1.63;;;;;;;14.34;64.02;101670.84;20973642;28;20056;-65
2022/01/19 21:56:27;;;;;;;5.45;1.80;;;;;;;14.47;64.12;101673.66;20990457;28;20056;-65
2022/01/19 22:06:29;;;;;;;5.40;2.15;;;;;;;14.05;64.96;101611.88;20972576;28;20102;-65
2022/01/19 22:16:31;;;;;;;6.20;1.90;;;;;;;14.38;65.40;101670.66;20971791;28;20486;-65
2022/01/19 22:26:33;;;;;;;4.05;1.50;;;;;;;14.41;65.64;101692.78;20988624;28;20045;-66
2022/01/19 22:36:35;;;;;;;8.68;2.72;;;;;;;13.95;65.73;101621.44;20970224;28;20059;-66
2022/01/19 22:46:37;;;;;;;3.75;1.50;;;;;;;14.26;66.43;101694.56;20987374;28;20135;-65
2022/01/19 22:56:40;;;;;;;6.15;2.08;;;;;;;14.33;66.39;101714.66;20988192;28;20517;-65
2022/01/19 23:06:41;;;;;;;5.10;1.88;;;;;;;14.09;66.24;101675.97;21003937;28;20147;-66
2022/01/19 23:16:45;;;;;;;4.75;1.90;;;;;;;14.23;66.54;101693.88;20985425;28;20048;-66
2022/01/19 23:26:56;;;;;;;7.68;2.00;;;;;;;13.80;66.43;101622.38;21002499;28;20060;-65
2022/01/19 23:47:52;;;;;;;5.95;2.00;;;;;;;13.63;66.06;101600.13;20902162;28;20547;-65
2022/01/19 23:58:07;;;;;;;5.53;1.73;;;;;;;13.61;66.11;101623.44;21001433;28;20057;-66
